Guerra, Texas
Current Conditions -  °F | °C
As of 2:55 AM on Saturday 25 Oct 2014 (Local Time) from KAPY Reporting Station
Clear Clear  
Wind Chill: 66°   Ceiling: Unl
Heat Index: 66°   Visibility: 10mi
Dew Point: 61°   Wind: 3mph
Humidity: 84%   Direction: 140°SE
Pressure: 30.13"   Gusts: NA
Location:  26.88°N, 98.89°W
Report Text: KAPY 250755Z AUTO 14003KT 10SM CLR 18/16 A3013 RMK AO2 T01900162
Loading
Personal Weather Stations






























Interactive Weather Map
Tropical Storm Tracking
New forecast layout! Learn more

10-Day Weather Forecast

Advertisements
Track Severe Weather on mobile